Time;durP1;ratioP1;P1;durP2;ratioP2;P2;SDS_P1;SDS_P2;PMS_P1;PMS_P2;Temp;Humidity;BMP_temperature;BMP_pressure;BME280_temperature;BME280_humidity;BME280_pressure;Samples;Min_cycle;Max_cycle;Signal;HPM_P1;HPM_P2
2022/06/05 00:01:25;;;;;;;;;;;;;;;18.58;85.42;95450.03;5092804;28;1910;-50
2022/06/05 00:04:01;;;;;;;;;;;;;;;18.58;85.27;95451.91;5092778;28;1864;-50
2022/06/05 00:06:27;;;;;;;;;;;;;;;18.60;85.25;95445.22;5108198;28;1148;-50
2022/06/05 00:09:07;;;;;;;;;;;;;;;18.65;85.20;95447.34;5116864;28;976;-50
2022/06/05 00:11:40;;;;;;;;;;;;;;;18.53;85.49;95449.78;5116719;28;965;-50
2022/06/05 00:14:06;;;;;;;;;;;;;;;18.47;85.58;95464.97;5116786;28;957;-50
2022/06/05 00:16:32;;;;;;;;;;;;;;;18.41;85.54;95465.78;5116136;28;1055;-50
2022/06/05 00:18:58;;;;;;;;;;;;;;;18.51;84.81;95463.53;5116385;28;1111;-50
2022/06/05 00:21:24;;;;;;;;;;;;;;;18.48;85.17;95465.81;5116486;28;1910;-50
2022/06/05 00:23:51;;;;;;;;;;;;;;;18.24;86.53;95459.88;5116107;27;991;-50
2022/06/05 00:26:30;;;;;;;;;;;;;;;18.17;86.43;95460.91;5116501;28;991;-50
2022/06/05 00:29:07;;;;;;;;;;;;;;;18.17;86.58;95461.72;5116164;28;1003;-50
2022/06/05 00:31:54;;;;;;;;;;;;;;;18.08;86.62;95471.03;5116177;28;1021;-50
2022/06/05 00:34:20;;;;;;;;;;;;;;;18.08;86.55;95471.91;5116374;28;965;-50
2022/06/05 00:37:03;;;;;;;;;;;;;;;18.23;85.80;95471.75;5116030;28;1023;-50
2022/06/05 00:39:35;;;;;;;;;;;;;;;18.37;85.32;95474.53;5115024;28;1029;-49
2022/06/05 00:42:06;;;;;;;;;;;;;;;18.31;85.70;95470.75;5115996;28;1993;-50
2022/06/05 00:44:34;;;;;;;;;;;;;;;18.11;86.26;95474.19;5116122;28;985;-50
2022/06/05 00:47:00;;;;;;;;;;;;;;;18.22;86.17;95474.66;5115654;28;1867;-50
2022/06/05 00:49:39;;;;;;;;;;;;;;;18.24;85.91;95480.72;5115931;28;968;-50
2022/06/05 00:52:06;;;;;;;;;;;;;;;18.20;86.44;95482.97;5115746;28;1036;-50
2022/06/05 00:54:32;;;;;;;;;;;;;;;18.13;86.28;95490.22;5115779;28;969;-50
2022/06/05 00:56:58;;;;;;;;;;;;;;;18.02;86.71;95482.66;5115987;28;1000;-50
2022/06/05 00:59:24;;;;;;;;;;;;;;;17.98;86.92;95479.50;5115568;28;1083;-50
2022/06/05 01:01:51;;;;;;;;;;;;;;;18.05;86.39;95479.56;5115735;28;1997;-50
2022/06/05 01:04:17;;;;;;;;;;;;;;;18.16;85.98;95473.59;5115439;28;1032;-50
2022/06/05 01:06:43;;;;;;;;;;;;;;;18.20;85.69;95474.84;5100506;28;1173;-50
2022/06/05 01:09:09;;;;;;;;;;;;;;;18.25;85.63;95474.25;5095139;28;944;-50
2022/06/05 01:11:38;;;;;;;;;;;;;;;18.33;85.08;95480.34;5095231;28;992;-51
2022/06/05 01:14:12;;;;;;;;;;;;;;;18.36;85.66;95480.97;5095101;28;969;-50
2022/06/05 01:16:47;;;;;;;;;;;;;;;18.16;86.21;95481.72;5094826;28;1869;-50
2022/06/05 01:19:35;;;;;;;;;;;;;;;17.96;87.01;95481.59;5095033;28;1019;-50
2022/06/05 01:22:10;;;;;;;;;;;;;;;17.81;87.48;95478.97;5094979;28;1979;-50
2022/06/05 01:24:51;;;;;;;;;;;;;;;17.87;87.15;95482.78;5094325;28;1036;-50
2022/06/05 01:27:21;;;;;;;;;;;;;;;17.93;87.07;95472.00;5094786;28;973;-50
2022/06/05 01:29:50;;;;;;;;;;;;;;;17.84;86.95;95475.03;5094817;28;988;-50
2022/06/05 01:32:25;;;;;;;;;;;;;;;17.65;87.89;95469.31;5094646;28;1041;-50
2022/06/05 01:34:53;;;;;;;;;;;;;;;17.67;88.32;95469.09;5094723;28;999;-50
2022/06/05 01:37:19;;;;;;;;;;;;;;;17.73;87.98;95466.44;5094792;28;1052;-49
2022/06/05 01:39:45;;;;;;;;;;;;;;;17.80;87.63;95469.19;5094348;28;1000;-50
2022/06/05 01:42:14;;;;;;;;;;;;;;;17.82;87.33;95471.72;5094473;28;2000;-50
2022/06/05 01:44:45;;;;;;;;;;;;;;;17.89;87.35;95472.59;5094415;28;960;-50
2022/06/05 01:47:15;;;;;;;;;;;;;;;17.94;86.80;95472.84;5094441;28;1135;-50
2022/06/05 01:49:45;;;;;;;;;;;;;;;17.94;86.80;95462.03;5094388;28;988;-50
2022/06/05 01:52:18;;;;;;;;;;;;;;;17.99;86.13;95467.69;5094577;28;1065;-50
2022/06/05 01:54:52;;;;;;;;;;;;;;;17.86;86.74;95479.25;5093934;28;1001;-50
2022/06/05 01:57:20;;;;;;;;;;;;;;;17.72;86.67;95472.91;5094616;28;1039;-50
2022/06/05 01:59:58;;;;;;;;;;;;;;;17.56;87.29;95473.19;5094100;28;988;-50
2022/06/05 02:02:26;;;;;;;;;;;;;;;17.69;86.90;95475.16;5094152;28;1910;-50
2022/06/05 02:04:56;;;;;;;;;;;;;;;17.83;87.48;95481.47;5094048;28;980;-50
2022/06/05 02:07:32;;;;;;;;;;;;;;;17.90;87.27;95474.28;5073853;28;1039;-51
2022/06/05 02:10:03;;;;;;;;;;;;;;;17.87;85.91;95466.53;5073612;28;1032;-51
2022/06/05 02:12:29;;;;;;;;;;;;;;;17.46;86.90;95472.69;5073805;28;993;-51
2022/06/05 02:14:56;;;;;;;;;;;;;;;17.49;87.48;95467.75;5073455;28;1024;-51
2022/06/05 02:17:22;;;;;;;;;;;;;;;17.60;87.08;95463.63;5073899;28;1063;-51
2022/06/05 02:19:48;;;;;;;;;;;;;;;17.82;86.54;95467.13;5073669;28;981;-51
2022/06/05 02:22:20;;;;;;;;;;;;;;;17.88;86.56;95479.06;5073380;28;1909;-51
2022/06/05 02:24:46;;;;;;;;;;;;;;;17.80;87.50;95477.31;5073633;28;966;-51
2022/06/05 02:27:12;;;;;;;;;;;;;;;17.77;87.23;95469.56;5073390;28;1079;-51
2022/06/05 02:29:38;;;;;;;;;;;;;;;17.69;86.37;95473.28;5072934;28;989;-51
2022/06/05 02:32:17;;;;;;;;;;;;;;;17.67;85.14;95469.09;5072252;28;1013;-51
2022/06/05 02:34:46;;;;;;;;;;;;;;;17.70;85.82;95469.56;5073151;28;1025;-51
2022/06/05 02:37:32;;;;;;;;;;;;;;;17.49;86.78;95475.84;5073549;28;961;-51
2022/06/05 02:40:00;;;;;;;;;;;;;;;17.35;87.58;95471.34;5073153;28;1863;-51
2022/06/05 02:42:32;;;;;;;;;;;;;;;17.34;88.01;95461.59;5073104;28;1910;-50
2022/06/05 02:44:58;;;;;;;;;;;;;;;17.54;87.23;95467.97;5073326;28;966;-50
2022/06/05 02:47:31;;;;;;;;;;;;;;;17.60;87.26;95469.03;5073151;28;1188;-50
2022/06/05 02:50:05;;;;;;;;;;;;;;;17.59;86.83;95469.28;5073079;28;1056;-51
2022/06/05 02:52:33;;;;;;;;;;;;;;;17.51;87.56;95465.69;5073192;28;1053;-50
2022/06/05 02:55:07;;;;;;;;;;;;;;;17.25;88.07;95469.00;5072943;28;1043;-51
2022/06/05 02:57:33;;;;;;;;;;;;;;;17.14;88.64;95470.34;5073111;28;1025;-51
2022/06/05 02:59:59;;;;;;;;;;;;;;;17.00;89.07;95473.97;5072961;28;1087;-51
2022/06/05 03:05:10;;;;;;;;;;;;;;;16.97;90.23;95474.34;5076729;28;1170;-50
2022/06/05 03:07:36;;;;;;;;;;;;;;;17.25;89.13;95471.69;5113511;28;1020;-50
2022/06/05 03:10:03;;;;;;;;;;;;;;;17.41;88.42;95475.97;5113358;28;1204;-51
2022/06/05 03:12:29;;;;;;;;;;;;;;;17.49;87.36;95467.75;5113764;28;935;-51
2022/06/05 03:14:56;;;;;;;;;;;;;;;17.49;87.07;95466.88;5113611;28;1007;-50
2022/06/05 03:17:23;;;;;;;;;;;;;;;17.51;86.74;95465.69;5113604;28;961;-51
2022/06/05 03:19:49;;;;;;;;;;;;;;;17.46;87.19;95464.59;5113644;28;1039;-51
2022/06/05 03:22:15;;;;;;;;;;;;;;;17.39;87.68;95464.53;5113654;28;1914;-50
2022/06/05 03:24:41;;;;;;;;;;;;;;;17.49;87.28;95467.75;5112935;28;1115;-50
2022/06/05 03:27:07;;;;;;;;;;;;;;;17.50;87.39;95472.09;5113395;28;1087;-51
2022/06/05 03:29:33;;;;;;;;;;;;;;;17.53;87.14;95474.41;5113544;28;1059;-51
2022/06/05 03:31:59;;;;;;;;;;;;;;;17.61;87.30;95480.72;5113434;28;1056;-50
2022/06/05 03:34:25;;;;;;;;;;;;;;;17.65;87.11;95474.72;5113567;28;972;-50
2022/06/05 03:36:51;;;;;;;;;;;;;;;17.72;87.25;95480.19;5113524;28;1012;-50
2022/06/05 03:39:17;;;;;;;;;;;;;;;17.80;87.12;95484.59;5113343;28;992;-50
2022/06/05 03:41:43;;;;;;;;;;;;;;;17.84;86.91;95492.13;5116363;28;1990;-50
2022/06/05 03:44:10;;;;;;;;;;;;;;;17.84;86.51;95486.72;5117204;28;1969;-51
2022/06/05 03:46:38;;;;;;;;;;;;;;;17.69;86.62;95489.50;5117004;28;1087;-50
2022/06/05 03:49:04;;;;;;;;;;;;;;;17.74;87.11;95487.03;5117216;28;1011;-51
2022/06/05 03:51:30;;;;;;;;;;;;;;;17.76;87.70;95492.25;5116803;28;1034;-50
2022/06/05 03:53:56;;;;;;;;;;;;;;;17.87;87.83;95502.56;5117037;28;1000;-51
2022/06/05 03:56:23;;;;;;;;;;;;;;;17.92;88.18;95505.50;5117023;28;1041;-51
2022/06/05 03:58:49;;;;;;;;;;;;;;;18.10;87.23;95502.28;5116929;28;1066;-50
2022/06/05 04:01:16;;;;;;;;;;;;;;;18.43;86.65;95500.78;5116619;28;1909;-50
2022/06/05 04:03:43;;;;;;;;;;;;;;;18.63;86.60;95495.44;5116857;28;1021;-51
2022/06/05 04:06:10;;;;;;;;;;;;;;;18.67;85.76;95502.13;5106237;27;1176;-50
2022/06/05 04:08:37;;;;;;;;;;;;;;;18.83;85.62;95499.06;5096509;28;1011;-50
2022/06/05 04:11:04;;;;;;;;;;;;;;;19.05;85.59;95490.81;5096391;28;1060;-49
2022/06/05 04:13:30;;;;;;;;;;;;;;;19.19;85.02;95488.94;5096155;28;1004;-50
2022/06/05 04:15:56;;;;;;;;;;;;;;;19.00;85.83;95494.13;5096190;28;992;-50
2022/06/05 04:18:22;;;;;;;;;;;;;;;19.06;86.14;95487.88;5096311;28;1008;-50
2022/06/05 04:20:48;;;;;;;;;;;;;;;19.24;86.41;95487.28;5096112;28;954;-50
2022/06/05 04:23:13;;;;;;;;;;;;;;;19.32;86.79;95480.81;5096159;28;1997;-51
2022/06/05 04:25:43;;;;;;;;;;;;;;;19.43;86.67;95479.38;5095533;28;1076;-50
2022/06/05 04:28:10;;;;;;;;;;;;;;;19.60;85.98;95480.63;5095955;28;1067;-51
2022/06/05 04:30:37;;;;;;;;;;;;;;;19.92;85.07;95480.84;5095774;28;1107;-50
2022/06/05 04:33:03;;;;;;;;;;;;;;;20.06;82.83;95478.94;5096101;28;1024;-50
2022/06/05 04:35:29;;;;;;;;;;;;;;;20.08;83.83;95484.97;5095739;28;977;-51
2022/06/05 04:37:55;;;;;;;;;;;;;;;20.27;82.95;95485.97;5095599;28;1012;-50
2022/06/05 04:40:21;;;;;;;;;;;;;;;20.38;82.16;95482.59;5095999;28;1048;-50
2022/06/05 04:42:47;;;;;;;;;;;;;;;20.35;83.03;95485.72;5095738;28;1957;-50
2022/06/05 04:45:13;;;;;;;;;;;;;;;20.36;82.43;95483.88;5095920;28;991;-50
2022/06/05 04:47:40;;;;;;;;;;;;;;;20.40;82.00;95487.81;5094050;28;1360;-50
2022/06/05 04:50:07;;;;;;;;;;;;;;;20.44;81.00;95484.44;5095552;28;1016;-50
2022/06/05 04:52:33;;;;;;;;;;;;;;;20.66;80.55;95489.63;5094742;28;953;-50
2022/06/05 04:54:59;;;;;;;;;;;;;;;20.82;79.41;95477.41;5095483;28;957;-49
2022/06/05 04:57:25;;;;;;;;;;;;;;;21.00;79.71;95484.81;5095438;28;953;-50
2022/06/05 04:59:51;;;;;;;;;;;;;;;21.28;77.50;95483.63;5095481;28;999;-50
2022/06/05 05:02:20;;;;;;;;;;;;;;;21.34;78.25;95488.16;5095325;28;1901;-50
2022/06/05 05:04:47;;;;;;;;;;;;;;;21.31;78.65;95489.44;5095108;28;964;-51
2022/06/05 05:07:14;;;;;;;;;;;;;;;21.49;78.05;95498.75;5114400;28;1161;-51
2022/06/05 05:09:40;;;;;;;;;;;;;;;21.65;77.03;95500.94;5115766;28;960;-50
2022/06/05 05:12:08;;;;;;;;;;;;;;;21.79;76.49;95494.31;5115248;28;1024;-51
2022/06/05 05:14:34;;;;;;;;;;;;;;;21.97;75.48;95498.97;5115379;28;1067;-50
2022/06/05 05:17:00;;;;;;;;;;;;;;;22.16;74.87;95499.03;5115207;28;1087;-51
2022/06/05 05:19:26;;;;;;;;;;;;;;;22.46;74.33;95504.59;5115204;28;1043;-51
2022/06/05 05:21:52;;;;;;;;;;;;;;;22.55;73.70;95499.66;5115217;28;1982;-50
2022/06/05 05:24:18;;;;;;;;;;;;;;;22.74;71.98;95495.03;5115017;28;1031;-50
2022/06/05 05:26:45;;;;;;;;;;;;;;;;;;5114939;28;1106;-50
2022/06/05 05:29:11;;;;;;;;;;;;;;;22.64;74.07;95495.56;5115318;28;1048;-50
2022/06/05 05:31:39;;;;;;;;;;;;;;;22.83;72.54;95493.66;5115191;28;944;-50
2022/06/05 05:34:06;;;;;;;;;;;;;;;22.90;74.82;95490.84;5115266;28;1028;-50
2022/06/05 05:36:33;;;;;;;;;;;;;;;22.87;74.36;95492.13;5114789;28;1020;-50
2022/06/05 05:44:28;;;;;;;;;;;;;;;23.06;73.01;95500.31;5114768;28;1036;-50
2022/06/05 05:46:54;;;;;;;;;;;;;;;23.08;73.32;95501.72;5114412;28;1176;-49
2022/06/05 05:49:20;;;;;;;;;;;;;;;23.25;73.84;95501.09;5114975;28;948;-49
2022/06/05 05:51:46;;;;;;;;;;;;;;;23.42;73.14;95501.25;5114783;28;1039;-49
2022/06/05 05:54:12;;;;;;;;;;;;;;;23.31;72.27;95498.25;5114702;28;1081;-50
2022/06/05 05:56:38;;;;;;;;;;;;;;;23.32;74.08;95496.38;5114494;28;1215;-50
2022/06/05 05:59:05;;;;;;;;;;;;;;;23.57;73.74;95504.38;5114432;28;1004;-51
2022/06/05 06:01:31;;;;;;;;;;;;;;;23.59;73.52;95503.06;5114521;28;1918;-50
2022/06/05 06:03:57;;;;;;;;;;;;;;;23.71;73.92;95511.31;5113710;28;1022;-50
2022/06/05 06:06:25;;;;;;;;;;;;;;;23.78;73.55;95505.72;5102151;28;1216;-51
2022/06/05 06:08:51;;;;;;;;;;;;;;;23.85;72.57;95506.47;5093860;28;1028;-50
2022/06/05 06:11:17;;;;;;;;;;;;;;;23.81;73.65;95509.91;5094107;28;1011;-50
2022/06/05 06:13:43;;;;;;;;;;;;;;;23.80;73.29;95500.88;5093738;28;1040;-51
2022/06/05 06:16:09;;;;;;;;;;;;;;;24.09;73.05;95506.47;5093831;28;1008;-51
2022/06/05 06:18:35;;;;;;;;;;;;;;;24.24;70.88;95500.53;5093816;28;917;-51
2022/06/05 06:21:01;;;;;;;;;;;;;;;24.38;72.48;95495.66;5094150;28;1060;-50
2022/06/05 06:23:27;;;;;;;;;;;;;;;24.42;72.94;95494.13;5093609;28;1910;-51
2022/06/05 06:25:53;;;;;;;;;;;;;;;24.63;70.61;95489.97;5094014;28;968;-51
2022/06/05 06:28:19;;;;;;;;;;;;;;;24.77;69.67;95490.50;5093671;28;957;-51
2022/06/05 06:30:45;;;;;;;;;;;;;;;25.09;70.10;95485.41;5093632;28;1024;-51
2022/06/05 06:33:11;;;;;;;;;;;;;;;25.20;69.13;95470.84;5093459;28;1004;-51
2022/06/05 06:35:37;;;;;;;;;;;;;;;25.25;69.00;95472.84;5093694;28;1104;-50
2022/06/05 06:38:04;;;;;;;;;;;;;;;25.20;68.90;95468.09;5093448;28;1865;-50
2022/06/05 06:40:30;;;;;;;;;;;;;;;25.36;68.47;95471.97;5093624;28;1015;-51
2022/06/05 06:42:56;;;;;;;;;;;;;;;25.40;67.87;95470.41;5093349;28;1987;-51
2022/06/05 06:45:23;;;;;;;;;;;;;;;25.53;66.21;95472.00;5093406;28;1095;-50
2022/06/05 06:47:49;;;;;;;;;;;;;;;25.56;67.02;95473.41;5093196;28;1080;-50
2022/06/05 06:50:15;;;;;;;;;;;;;;;25.46;66.86;95468.56;5093278;28;1863;-50
2022/06/05 06:52:41;;;;;;;;;;;;;;;25.71;68.15;95465.47;5093498;28;960;-50
2022/06/05 06:55:10;;;;;;;;;;;;;;;25.97;66.73;95468.63;5093352;28;1052;-50
2022/06/05 06:57:36;;;;;;;;;;;;;;;25.97;66.75;95464.00;5093325;28;1036;-51
2022/06/05 07:00:03;;;;;;;;;;;;;;;26.12;67.49;95476.25;5093352;28;1029;-51
2022/06/05 07:02:29;;;;;;;;;;;;;;;26.24;66.93;95472.34;5093453;28;1902;-51
2022/06/05 07:04:55;;;;;;;;;;;;;;;26.22;66.12;95469.00;5092894;28;1096;-51
2022/06/05 07:07:21;;;;;;;;;;;;;;;26.26;66.87;95464.69;5113365;28;1188;-51
2022/06/05 07:09:47;;;;;;;;;;;;;;;26.45;66.58;95473.44;5113679;28;1031;-51
2022/06/05 07:12:13;;;;;;;;;;;;;;;26.51;66.04;95477.09;5113652;28;1039;-51
2022/06/05 07:14:39;;;;;;;;;;;;;;;26.56;66.50;95473.56;5115361;28;1031;-51
2022/06/05 07:17:05;;;;;;;;;;;;;;;26.52;65.96;95472.41;5117684;27;1012;-51
2022/06/05 07:19:31;;;;;;;;;;;;;;;26.60;65.67;95472.03;5117606;28;1034;-51
2022/06/05 07:21:57;;;;;;;;;;;;;;;26.60;63.64;95480.25;5117601;28;1901;-51
2022/06/05 07:24:22;;;;;;;;;;;;;;;26.62;65.99;95467.94;5117261;28;972;-51
2022/06/05 07:26:48;;;;;;;;;;;;;;;26.86;65.73;95463.03;5117807;28;953;-51
2022/06/05 07:29:14;;;;;;;;;;;;;;;27.00;65.81;95468.94;5117321;28;1004;-51
2022/06/05 07:31:40;;;;;;;;;;;;;;;27.15;63.93;95467.44;5117443;28;1947;-50
2022/06/05 07:34:08;;;;;;;;;;;;;;;27.13;65.01;95461.38;5116189;28;1036;-51
2022/06/05 07:36:34;;;;;;;;;;;;;;;27.23;64.63;95453.28;5117455;28;995;-51
2022/06/05 07:39:02;;;;;;;;;;;;;;;27.28;63.27;95458.84;5117434;28;1031;-51
2022/06/05 07:41:30;;;;;;;;;;;;;;;27.23;63.03;95461.50;5117378;28;2004;-51
2022/06/05 07:43:56;;;;;;;;;;;;;;;27.29;61.27;95454.19;5116993;28;1040;-51
2022/06/05 07:46:23;;;;;;;;;;;;;;;27.48;61.59;95449.16;5116907;28;1092;-50
2022/06/05 07:48:49;;;;;;;;;;;;;;;27.55;62.52;95458.00;5117196;28;1031;-51
2022/06/05 07:56:46;;;;;;;;;;;;;;;27.85;63.33;95436.28;5116916;28;1846;-51
2022/06/05 07:59:12;;;;;;;;;;;;;;;27.91;62.47;95434.44;5116762;28;1032;-51
2022/06/05 08:01:38;;;;;;;;;;;;;;;28.06;62.97;95441.97;5116995;28;1910;-51
2022/06/05 08:04:04;;;;;;;;;;;;;;;28.15;61.92;95440.38;5116646;28;1072;-50
2022/06/05 08:06:34;;;;;;;;;;;;;;;28.27;60.18;95433.81;5103502;28;1153;-51
2022/06/05 08:09:00;;;;;;;;;;;;;;;28.35;60.88;95436.91;5096313;28;1174;-51
2022/06/05 08:11:27;;;;;;;;;;;;;;;28.40;59.79;95434.19;5096313;28;965;-51
2022/06/05 08:13:53;;;;;;;;;;;;;;;28.61;60.41;95428.81;5096604;28;977;-51
2022/06/05 08:16:18;;;;;;;;;;;;;;;28.91;58.10;95428.09;5096164;28;965;-51
2022/06/05 08:18:45;;;;;;;;;;;;;;;29.09;57.63;95428.69;5096168;28;1016;-51
2022/06/05 08:21:11;;;;;;;;;;;;;;;29.13;55.95;95429.84;5096220;28;1027;-54
2022/06/05 08:23:38;;;;;;;;;;;;;;;29.24;55.00;95422.44;5095986;28;1906;-50
2022/06/05 08:26:04;;;;;;;;;;;;;;;29.38;54.23;95423.53;5095242;28;991;-50
2022/06/05 08:28:30;;;;;;;;;;;;;;;29.45;53.89;95424.09;5095896;28;1093;-51
2022/06/05 08:30:56;;;;;;;;;;;;;;;29.47;51.99;95418.34;5095743;28;1048;-51
2022/06/05 08:33:22;;;;;;;;;;;;;;;29.39;50.64;95426.03;5095830;28;969;-51
2022/06/05 08:35:49;;;;;;;;;;;;;;;29.35;51.96;95408.41;5095665;28;1037;-51
2022/06/05 08:41:30;;;;;;;;;;;;;;;29.37;54.26;95417.22;5095603;28;1115;-51
2022/06/05 08:43:56;;;;;;;;;;;;;;;29.43;51.65;95411.72;5068716;28;1953;-51
2022/06/05 08:46:28;;;;;;;;;;;;;;;29.56;52.08;95411.19;5094276;28;1088;-52
2022/06/05 08:49:01;;;;;;;;;;;;;;;29.64;50.82;95416.13;5095390;28;1091;-52
2022/06/05 08:51:30;;;;;;;;;;;;;;;29.51;51.39;95402.91;5095564;28;1043;-51
2022/06/05 08:54:00;;;;;;;;;;;;;;;29.54;51.18;95403.19;5095475;28;1047;-51
2022/06/05 08:56:37;;;;;;;;;;;;;;;29.56;51.31;95406.50;5095101;28;1067;-50
2022/06/05 08:59:10;;;;;;;;;;;;;;;29.57;50.19;95407.31;5095482;28;1869;-51
2022/06/05 09:02:03;;;;;;;;;;;;;;;29.58;49.19;95403.47;5095194;28;1921;-51
2022/06/05 09:04:49;;;;;;;;;;;;;;;29.72;51.74;95398.22;5071899;28;1095;-52
2022/06/05 09:07:17;;;;;;;;;;;;;;;29.89;51.63;95389.69;5114589;28;1224;-51
2022/06/05 09:09:48;;;;;;;;;;;;;;;30.03;51.19;95396.31;5115405;28;969;-50
2022/06/05 09:12:40;;;;;;;;;;;;;;;29.82;49.69;95397.41;5115382;28;992;-49
2022/06/05 09:15:16;;;;;;;;;;;;;;;29.82;48.90;95391.91;5111785;28;1745;-48
2022/06/05 09:17:46;;;;;;;;;;;;;;;29.75;49.37;95390.25;5115420;28;1184;-59
2022/06/05 09:20:14;;;;;;;;;;;;;;;29.82;49.39;95394.66;5114124;28;1031;-52
2022/06/05 09:22:45;;;;;;;;;;;;;;;29.92;49.76;95391.91;5114888;28;1914;-51
2022/06/05 09:25:39;;;;;;;;;;;;;;;29.90;47.16;95396.84;5115298;28;1237;-52
2022/06/05 09:28:24;;;;;;;;;;;;;;;29.90;50.64;95385.81;5107809;28;1683;-51
2022/06/05 09:31:02;;;;;;;;;;;;;;;30.03;50.00;95396.31;5114871;28;1072;-51
2022/06/05 09:33:31;;;;;;;;;;;;;;;30.06;49.35;95390.22;5115237;28;1021;-51
2022/06/05 09:36:00;;;;;;;;;;;;;;;30.16;50.17;95389.34;5114845;28;1075;-51
2022/06/05 09:38:31;;;;;;;;;;;;;;;30.19;49.29;95390.75;5115209;27;925;-51
2022/06/05 09:41:00;;;;;;;;;;;;;;;30.23;50.59;95395.41;5114830;28;1046;-51
2022/06/05 09:43:32;;;;;;;;;;;;;;;30.10;49.61;95384.97;5114889;28;1987;-51
2022/06/05 09:45:58;;;;;;;;;;;;;;;30.08;51.15;95385.25;5114886;28;965;-51
2022/06/05 09:48:28;;;;;;;;;;;;;;;30.11;48.16;95379.19;5114484;28;1246;-50
2022/06/05 09:50:54;;;;;;;;;;;;;;;30.26;48.75;95382.97;5114781;28;961;-50
2022/06/05 09:53:23;;;;;;;;;;;;;;;30.34;49.54;95369.47;5114526;28;1008;-51
2022/06/05 09:56:01;;;;;;;;;;;;;;;30.40;45.72;95363.97;5114608;28;1052;-51
2022/06/05 09:58:48;;;;;;;;;;;;;;;30.48;47.93;95361.41;5114661;28;948;-51
2022/06/05 10:01:26;;;;;;;;;;;;;;;30.45;45.27;95350.97;5114659;28;969;-52
2022/06/05 10:03:52;;;;;;;;;;;;;;;30.47;48.28;95354.28;5114809;28;968;-52
2022/06/05 10:06:24;;;;;;;;;;;;;;;30.47;48.42;95343.25;5102951;28;1212;-50
2022/06/05 10:08:53;;;;;;;;;;;;;;;30.42;45.13;95347.94;5094396;28;1023;-49
2022/06/05 10:11:38;;;;;;;;;;;;;;;30.41;44.88;95338.84;5094171;28;980;-49
2022/06/05 10:14:33;;;;;;;;;;;;;;;30.40;44.43;95337.19;5094243;28;1036;-51
2022/06/05 10:17:17;;;;;;;;;;;;;;;30.50;43.08;95344.59;5038966;28;1301;-51
2022/06/05 10:20:02;;;;;;;;;;;;;;;30.53;44.04;95344.03;5093768;28;1052;-51
2022/06/05 10:22:34;;;;;;;;;;;;;;;30.62;43.19;95335.97;5093459;28;1988;-51
2022/06/05 10:25:25;;;;;;;;;;;;;;;30.67;44.37;95335.97;5093859;28;1031;-51
2022/06/05 10:27:52;;;;;;;;;;;;;;;30.66;41.87;95331.56;5093612;28;1068;-51
2022/06/05 10:30:20;;;;;;;;;;;;;;;30.67;42.21;95328.50;5093917;28;980;-50
2022/06/05 10:33:04;;;;;;;;;;;;;;;30.72;41.79;95335.94;5093419;28;1091;-49
2022/06/05 10:35:49;;;;;;;;;;;;;;;30.74;40.87;95334.53;5093506;28;1033;-51
2022/06/05 10:38:27;;;;;;;;;;;;;;;30.73;39.80;95326.53;5093681;28;964;-51
2022/06/05 10:41:01;;;;;;;;;;;;;;;30.73;40.23;95327.38;5093791;28;956;-50
2022/06/05 10:43:32;;;;;;;;;;;;;;;30.61;38.23;95320.56;5093323;28;1914;-50
2022/06/05 10:46:02;;;;;;;;;;;;;;;30.62;40.31;95322.19;5093362;28;1035;-50
2022/06/05 10:48:28;;;;;;;;;;;;;;;30.75;40.45;95318.78;5093296;28;1016;-51
2022/06/05 10:50:54;;;;;;;;;;;;;;;30.79;40.04;95314.38;5093408;28;964;-50
2022/06/05 10:53:27;;;;;;;;;;;;;;;30.79;38.94;95314.38;5093319;28;949;-51
2022/06/05 10:56:01;;;;;;;;;;;;;;;30.71;38.52;95307.50;5093604;28;952;-51
2022/06/05 10:58:34;;;;;;;;;;;;;;;30.79;38.46;95314.38;5093103;28;1023;-51
2022/06/05 11:01:12;;;;;;;;;;;;;;;30.74;39.56;95300.59;5093383;28;1882;-50
2022/06/05 11:03:58;;;;;;;;;;;;;;;30.82;39.50;95296.41;5093273;28;1910;-50
2022/06/05 11:06:25;;;;;;;;;;;;;;;30.79;39.36;95305.25;5105681;28;1164;-50
2022/06/05 11:08:57;;;;;;;;;;;;;;;30.80;40.10;95304.97;5113420;28;1023;-51
2022/06/05 11:14:27;;;;;;;;;;;;;;;30.70;38.65;95308.63;5113260;28;1040;-50
2022/06/05 11:16:59;;;;;;;;;;;;;;;30.70;41.38;95305.06;5113538;28;1052;-50
2022/06/05 11:19:34;;;;;;;;;;;;;;;30.76;39.77;95292.88;5113649;28;1005;-50
2022/06/05 11:22:03;;;;;;;;;;;;;;;30.89;39.12;95291.41;5113315;28;1921;-50
2022/06/05 11:24:31;;;;;;;;;;;;;;;30.97;38.95;95299.09;5113336;28;1017;-50
2022/06/05 11:27:04;;;;;;;;;;;;;;;30.95;37.19;95290.28;5113799;28;1062;-50
2022/06/05 11:29:56;;;;;;;;;;;;;;;30.92;39.65;95285.31;5113293;28;987;-50
2022/06/05 11:32:23;;;;;;;;;;;;;;;30.95;38.62;95284.75;5109722;28;1062;-49
2022/06/05 11:34:57;;;;;;;;;;;;;;;31.02;39.36;95295.47;5113549;28;1023;-50
2022/06/05 11:37:34;;;;;;;;;;;;;;;30.99;39.23;95290.53;5113545;28;1023;-50
2022/06/05 11:40:00;;;;;;;;;;;;;;;30.97;38.62;95290.81;5113267;28;1106;-49
2022/06/05 11:42:29;;;;;;;;;;;;;;;30.91;39.03;95284.50;5113285;28;1913;-50
2022/06/05 11:45:04;;;;;;;;;;;;;;;30.79;37.62;95285.94;5113092;28;1024;-50
2022/06/05 11:47:47;;;;;;;;;;;;;;;30.72;39.38;95286.28;5112974;28;1103;-49
2022/06/05 11:50:25;;;;;;;;;;;;;;;30.65;38.56;95278.28;5113200;28;985;-50
2022/06/05 11:52:54;;;;;;;;;;;;;;;30.63;38.98;95282.47;5113460;28;939;-50
2022/06/05 11:55:31;;;;;;;;;;;;;;;30.63;37.86;95269.47;5113077;28;1015;-50
2022/06/05 11:58:04;;;;;;;;;;;;;;;30.77;40.01;95272.41;5113370;28;952;-50
2022/06/05 12:00:33;;;;;;;;;;;;;;;30.89;39.31;95272.91;5112912;28;1039;-50
2022/06/05 12:03:04;;;;;;;;;;;;;;;30.99;39.54;95271.22;5115508;28;1990;-50
2022/06/05 12:05:41;;;;;;;;;;;;;;;31.01;39.08;95272.56;5111942;28;1250;-50
2022/06/05 12:08:19;;;;;;;;;;;;;;;30.92;38.00;95268.75;5096448;28;1008;-50
2022/06/05 12:11:03;;;;;;;;;;;;;;;30.83;39.76;95268.53;5096543;28;1023;-50
2022/06/05 12:13:44;;;;;;;;;;;;;;;30.77;38.82;95266.09;5096072;28;1036;-49
2022/06/05 12:16:15;;;;;;;;;;;;;;;30.87;38.88;95257.75;5096474;28;991;-50
2022/06/05 12:18:48;;;;;;;;;;;;;;;30.93;38.70;95254.69;5096288;28;1067;-50
2022/06/05 12:21:28;;;;;;;;;;;;;;;30.96;36.66;95252.44;5096223;28;1098;-50
2022/06/05 12:23:54;;;;;;;;;;;;;;;30.93;39.51;95246.41;5095675;28;1853;-49
2022/06/05 12:26:24;;;;;;;;;;;;;;;30.93;38.41;95249.16;5096267;28;1028;-50
2022/06/05 12:28:58;;;;;;;;;;;;;;;30.95;39.46;95246.13;5096173;28;1051;-50
2022/06/05 12:31:27;;;;;;;;;;;;;;;30.99;37.45;95240.84;5095857;28;1009;-49
2022/06/05 12:33:58;;;;;;;;;;;;;;;31.10;38.57;95245.19;5095736;28;1016;-50
2022/06/05 12:36:26;;;;;;;;;;;;;;;31.22;39.52;95242.03;5095851;28;1102;-50
2022/06/05 12:38:55;;;;;;;;;;;;;;;31.20;38.93;95244.25;5095558;28;1032;-50
2022/06/05 12:41:28;;;;;;;;;;;;;;;31.10;38.40;95231.38;5095780;28;1024;-49
2022/06/05 12:43:57;;;;;;;;;;;;;;;30.93;37.32;95221.56;5095837;28;1036;-49
2022/06/05 12:46:29;;;;;;;;;;;;;;;31.01;39.64;95222.88;5095326;28;1069;-50
2022/06/05 12:49:25;;;;;;;;;;;;;;;31.03;40.43;95226.16;5095627;28;961;-49
2022/06/05 12:52:12;;;;;;;;;;;;;;;31.07;38.31;95213.41;5040889;28;1171;-50
2022/06/05 12:54:43;;;;;;;;;;;;;;;31.19;38.39;95209.47;5095441;28;940;-51
2022/06/05 12:57:15;;;;;;;;;;;;;;;31.06;37.87;95214.56;5095474;28;1016;-50
2022/06/05 13:00:03;;;;;;;;;;;;;;;31.03;38.39;95214.31;5095392;28;1040;-51
2022/06/05 13:02:39;;;;;;;;;;;;;;;30.86;38.36;95218.25;5095347;28;1902;-50
2022/06/05 13:05:14;;;;;;;;;;;;;;;30.90;39.56;95205.56;5096151;28;1172;-51
2022/06/05 13:07:54;;;;;;;;;;;;;;;30.93;39.12;95207.75;5115695;28;1040;-51
2022/06/05 13:10:33;;;;;;;;;;;;;;;30.94;37.69;95201.13;5115671;28;1052;-50
2022/06/05 13:13:03;;;;;;;;;;;;;;;30.96;38.03;95197.25;5115290;28;1187;-50
2022/06/05 13:15:38;;;;;;;;;;;;;;;30.84;37.35;95198.41;5115446;28;1036;-49
2022/06/05 13:18:13;;;;;;;;;;;;;;;30.80;36.82;95197.34;5115803;28;1052;-49
2022/06/05 13:20:41;;;;;;;;;;;;;;;30.79;36.93;95195.72;5115023;28;1040;-48
2022/06/05 13:23:12;;;;;;;;;;;;;;;30.84;36.74;95195.66;5115295;28;1914;-49
2022/06/05 13:25:44;;;;;;;;;;;;;;;30.90;36.98;95186.22;5114900;28;1055;-49
2022/06/05 13:28:31;;;;;;;;;;;;;;;30.98;38.13;95183.97;5115523;28;984;-49
2022/06/05 13:31:07;;;;;;;;;;;;;;;31.04;37.87;95180.88;5114977;28;1002;-49
2022/06/05 13:33:39;;;;;;;;;;;;;;;31.00;37.25;95177.06;5115352;28;957;-49
2022/06/05 13:36:15;;;;;;;;;;;;;;;30.91;36.50;95174.09;5115132;28;1197;-50